createdAt,value
2022-08-05T00:00:29.404Z,97256.84
2022-08-05T00:02:56.833Z,97247.28
2022-08-05T00:06:02.888Z,97246.47
2022-08-05T00:08:35.182Z,97249.91
2022-08-05T00:11:01.380Z,97246.81
2022-08-05T00:13:38.816Z,97245.69
2022-08-05T00:16:09.276Z,97243.25
2022-08-05T00:18:38.863Z,97249.97
2022-08-05T00:21:08.503Z,97249.50
2022-08-05T00:23:45.850Z,97249.06
2022-08-05T00:26:22.132Z,97250.06
2022-08-05T00:28:49.989Z,97248.34
2022-08-05T00:31:41.521Z,97243.47
2022-08-05T00:34:55.465Z,97240.34
2022-08-05T00:37:11.981Z,97244.19
2022-08-05T00:39:57.224Z,97249.09
2022-08-05T00:42:32.992Z,97247.78
2022-08-05T00:45:01.162Z,97255.63
2022-08-05T00:47:53.228Z,97254.78
2022-08-05T00:50:15.427Z,97257.53
2022-08-05T00:52:45.494Z,97252.31
2022-08-05T00:55:13.961Z,97254.97
2022-08-05T00:57:58.531Z,97251.00
2022-08-05T01:00:27.428Z,97249.06
2022-08-05T01:02:55.399Z,97251.19
2022-08-05T01:05:23.888Z,97236.97
2022-08-05T01:08:39.169Z,97256.50
2022-08-05T01:11:33.713Z,97254.22
2022-08-05T01:14:27.748Z,97255.84
2022-08-05T01:17:12.519Z,97252.16
2022-08-05T01:20:02.306Z,97255.50
2022-08-05T01:23:14.386Z,97250.88
2022-08-05T01:26:20.464Z,97246.59
2022-08-05T01:29:05.005Z,97247.59
2022-08-05T01:31:44.589Z,97243.66
2022-08-05T01:34:27.850Z,97242.63
2022-08-05T01:37:00.744Z,97245.09
2022-08-05T01:39:46.003Z,97245.00
2022-08-05T01:42:19.701Z,97248.31
2022-08-05T01:44:54.084Z,97244.00
2022-08-05T01:47:23.217Z,97247.84
2022-08-05T01:50:01.641Z,97251.16
2022-08-05T01:52:34.904Z,97248.03
2022-08-05T01:55:05.692Z,97240.69
2022-08-05T01:58:12.870Z,97241.88
2022-08-05T02:00:30.107Z,97244.06
2022-08-05T02:03:06.931Z,97243.53
2022-08-05T02:05:57.921Z,97243.53
2022-08-05T02:08:30.968Z,97242.31
2022-08-05T02:11:23.964Z,97237.38
2022-08-05T02:14:12.905Z,97245.53
2022-08-05T02:16:52.795Z,97239.94
2022-08-05T02:19:29.011Z,97239.97
2022-08-05T02:22:25.919Z,97237.88
2022-08-05T02:25:02.778Z,97242.38
2022-08-05T02:27:58.389Z,97237.06
2022-08-05T02:30:21.598Z,97233.38
2022-08-05T02:32:52.838Z,97224.31
2022-08-05T02:35:27.922Z,97229.16
2022-08-05T02:38:02.609Z,97230.44
2022-08-05T02:40:30.790Z,97221.81
2022-08-05T02:42:59.800Z,97236.59
2022-08-05T02:45:52.294Z,97232.81
2022-08-05T02:48:17.655Z,97226.09
2022-08-05T02:50:48.576Z,97233.88
2022-08-05T02:53:19.614Z,97230.94
2022-08-05T02:55:59.590Z,97237.72
2022-08-05T02:58:28.813Z,97234.97
2022-08-05T03:01:01.881Z,97233.59
2022-08-05T03:03:34.142Z,97232.31
2022-08-05T03:06:54.539Z,97233.19
2022-08-05T03:09:06.200Z,97232.38
2022-08-05T03:11:54.738Z,97230.66
2022-08-05T03:14:22.431Z,97235.97
2022-08-05T03:16:49.424Z,97229.03
2022-08-05T03:19:33.822Z,97244.63
2022-08-05T03:22:04.908Z,97239.94
2022-08-05T03:24:47.187Z,97244.97
2022-08-05T03:27:19.064Z,97247.78
2022-08-05T03:30:08.334Z,97244.03
2022-08-05T03:32:33.601Z,97247.31
2022-08-05T03:35:00.937Z,97236.22
2022-08-05T03:37:28.325Z,97245.66
2022-08-05T03:39:58.817Z,97244.31
2022-08-05T03:42:29.214Z,97244.31
2022-08-05T03:44:59.119Z,97246.63
2022-08-05T03:47:30.576Z,97238.94
2022-08-05T03:50:02.673Z,97242.59
2022-08-05T03:52:48.462Z,97245.91
2022-08-05T03:56:05.391Z,97240.94
2022-08-05T03:58:31.550Z,97242.09
2022-08-05T04:01:01.967Z,97239.44
2022-08-05T04:03:38.117Z,97248.88
2022-08-05T04:06:08.793Z,97254.13
2022-08-05T04:08:37.106Z,97259.41
2022-08-05T04:11:15.762Z,97253.63
2022-08-05T04:13:51.106Z,97258.31
2022-08-05T04:16:24.883Z,97249.81
2022-08-05T04:18:54.448Z,97249.38
2022-08-05T04:22:10.359Z,97252.50
2022-08-05T04:24:18.936Z,97250.13
2022-08-05T04:26:47.161Z,97249.34
2022-08-05T04:29:14.277Z,97251.72
2022-08-05T04:31:41.502Z,97254.88
2022-08-05T04:34:31.573Z,97243.56
2022-08-05T04:36:57.333Z,97251.22
2022-08-05T04:39:27.359Z,97253.28
2022-08-05T04:41:55.450Z,97246.81
2022-08-05T04:44:29.021Z,97247.03
2022-08-05T04:47:09.107Z,97251.16
2022-08-05T04:50:02.906Z,97252.66
2022-08-05T04:52:28.435Z,97241.50
2022-08-05T04:54:56.940Z,97242.84
2022-08-05T04:57:28.492Z,97235.16
2022-08-05T04:59:58.443Z,97222.84
2022-08-05T05:02:42.010Z,97232.13
2022-08-05T05:05:25.860Z,97222.03
2022-08-05T05:08:01.635Z,97228.59
2022-08-05T05:10:33.323Z,97221.50
2022-08-05T05:13:03.630Z,97222.25
2022-08-05T05:15:59.384Z,97221.28
2022-08-05T05:18:31.113Z,97215.25
2022-08-05T05:21:02.199Z,97212.72
2022-08-05T05:23:39.041Z,97210.28
2022-08-05T05:26:19.054Z,97207.38
2022-08-05T05:28:46.457Z,97211.03
2022-08-05T05:31:13.755Z,97212.72
2022-08-05T05:33:43.394Z,97206.53
2022-08-05T05:36:28.569Z,97197.25
2022-08-05T05:38:57.538Z,97203.06
2022-08-05T05:41:24.841Z,97200.19
2022-08-05T05:43:56.892Z,97203.66
2022-08-05T05:46:25.811Z,97203.53
2022-08-05T05:48:52.774Z,97207.06
2022-08-05T05:51:24.388Z,97208.59
2022-08-05T05:53:59.261Z,97202.69
2022-08-05T05:56:34.373Z,97200.19
2022-08-05T05:59:07.742Z,97199.41
2022-08-05T06:01:38.883Z,97199.66
2022-08-05T06:04:14.654Z,97197.38
2022-08-05T06:06:47.291Z,97200.94
2022-08-05T06:09:17.739Z,97205.75
2022-08-05T06:12:01.958Z,97194.09
2022-08-05T06:14:34.803Z,97187.34
2022-08-05T06:17:21.647Z,97189.06
2022-08-05T06:19:57.001Z,97188.41
2022-08-05T06:22:29.115Z,97183.22
2022-08-05T06:24:56.489Z,97191.56
2022-08-05T06:28:10.412Z,97188.75
2022-08-05T06:30:16.931Z,97179.41
2022-08-05T06:32:47.266Z,97186.38
2022-08-05T06:35:21.682Z,97188.91
2022-08-05T06:38:08.318Z,97176.03
2022-08-05T06:40:38.235Z,97177.78
2022-08-05T06:43:58.694Z,97180.88
2022-08-05T06:46:04.065Z,97187.25
2022-08-05T06:48:50.113Z,97187.50
2022-08-05T06:51:29.801Z,97176.44
2022-08-05T06:54:03.428Z,97172.38
2022-08-05T06:56:34.155Z,97188.97
2022-08-05T06:59:08.402Z,97187.31
2022-08-05T07:01:36.653Z,97185.19
2022-08-05T07:04:04.051Z,97191.72
2022-08-05T07:06:31.957Z,97191.16
2022-08-05T07:09:03.757Z,97185.72
2022-08-05T07:11:31.688Z,97181.09
2022-08-05T07:14:29.261Z,97190.59
2022-08-05T07:18:02.049Z,97192.78
2022-08-05T07:22:38.196Z,97194.69
2022-08-05T07:25:23.449Z,97185.13
2022-08-05T07:27:58.772Z,97192.75
2022-08-05T07:30:34.437Z,97189.81
2022-08-05T07:33:05.366Z,97195.19
2022-08-05T07:36:04.333Z,97194.34
2022-08-05T07:38:33.803Z,97196.50
2022-08-05T07:41:35.093Z,97193.84
2022-08-05T07:43:59.274Z,97196.50
2022-08-05T07:46:27.522Z,97191.91
2022-08-05T07:49:02.943Z,97189.94
2022-08-05T07:51:36.685Z,97186.03
2022-08-05T07:54:06.306Z,97190.88
2022-08-05T07:57:02.739Z,97188.16
2022-08-05T07:59:37.996Z,97200.00
2022-08-05T08:02:15.820Z,97189.00
2022-08-05T08:04:45.978Z,97187.53
2022-08-05T08:07:13.936Z,97187.94
2022-08-05T08:09:42.169Z,97195.53
2022-08-05T08:12:20.239Z,97185.38
2022-08-05T08:14:56.385Z,97192.66
2022-08-05T08:17:23.978Z,97191.88
2022-08-05T08:20:21.107Z,97185.97
2022-08-05T08:22:42.048Z,97182.16
2022-08-05T08:25:16.137Z,97176.00
2022-08-05T08:27:47.471Z,97182.59
2022-08-05T08:30:32.868Z,97180.25
2022-08-05T08:33:13.753Z,97178.63
2022-08-05T08:35:53.950Z,97179.28
2022-08-05T08:38:35.425Z,97171.72
2022-08-05T08:41:08.658Z,97172.28
2022-08-05T08:45:20.550Z,97167.97
2022-08-05T08:46:27.664Z,97166.59
2022-08-05T08:49:06.255Z,97162.19
2022-08-05T08:52:02.955Z,97164.59
2022-08-05T08:54:33.832Z,97171.59
2022-08-05T08:57:11.246Z,97167.50
2022-08-05T08:59:41.813Z,97159.69
2022-08-05T09:02:16.570Z,97146.50
2022-08-05T09:04:58.117Z,97152.03
2022-08-05T09:07:39.710Z,97153.66
2022-08-05T09:10:22.316Z,97143.47
2022-08-05T09:12:55.931Z,97150.06
2022-08-05T09:15:23.664Z,97132.28
2022-08-05T09:17:52.925Z,97151.97
2022-08-05T09:20:37.462Z,97127.03
2022-08-05T09:23:21.492Z,97137.03
2022-08-05T09:26:06.706Z,97129.25
2022-08-05T09:28:41.491Z,97138.28
2022-08-05T09:32:39.417Z,97130.97
2022-08-05T09:34:07.661Z,97135.72
2022-08-05T09:36:54.821Z,97130.50
2022-08-05T09:39:39.306Z,97132.06
2022-08-05T09:42:17.319Z,97118.22
2022-08-05T09:44:56.079Z,97131.63
2022-08-05T09:47:35.213Z,97132.97
2022-08-05T09:50:18.193Z,97132.53
2022-08-05T09:53:01.657Z,97126.97
2022-08-05T09:55:58.488Z,97127.69
2022-08-05T09:58:23.923Z,97122.56
2022-08-05T10:01:14.738Z,97122.47
2022-08-05T10:04:00.569Z,97117.41
2022-08-05T10:06:31.281Z,97101.41
2022-08-05T10:09:27.748Z,97114.97
2022-08-05T10:12:30.643Z,97114.84
2022-08-05T10:15:17.119Z,97118.63
2022-08-05T10:17:54.526Z,97114.56
2022-08-05T10:20:25.760Z,97103.31
2022-08-05T10:22:53.440Z,97103.91
2022-08-05T10:25:20.569Z,97098.69
2022-08-05T10:28:13.129Z,97103.22
2022-08-05T10:32:47.137Z,97101.38
2022-08-05T10:33:28.775Z,97095.66
2022-08-05T10:35:59.649Z,97095.69
2022-08-05T10:38:33.090Z,97085.72
2022-08-05T10:41:23.458Z,97076.88
2022-08-05T10:43:56.960Z,97073.75
2022-08-05T10:46:51.051Z,97073.09
2022-08-05T10:49:27.618Z,97079.44
2022-08-05T10:52:05.589Z,97074.19
2022-08-05T10:54:58.243Z,97069.81
2022-08-05T10:57:30.825Z,97062.88
2022-08-05T11:00:18.549Z,97062.63
2022-08-05T11:03:23.701Z,97069.94
2022-08-05T11:06:15.734Z,97080.47
2022-08-05T11:09:16.638Z,97073.09
2022-08-05T11:11:53.180Z,97065.22
2022-08-05T11:15:11.680Z,97057.47
2022-08-05T11:17:57.055Z,97048.28
2022-08-05T11:20:38.964Z,97053.78
2022-08-05T11:23:33.351Z,97054.16
2022-08-05T11:26:28.311Z,97049.63
2022-08-05T11:28:56.816Z,97054.63
2022-08-05T11:31:57.433Z,97032.06
2022-08-05T11:34:18.053Z,97031.94
2022-08-05T11:36:52.591Z,97030.09
2022-08-05T11:40:00.195Z,97029.06
2022-08-05T11:42:37.809Z,97032.00
2022-08-05T11:45:14.369Z,97042.38
2022-08-05T11:47:54.675Z,97042.50
2022-08-05T11:50:22.142Z,97039.63
2022-08-05T11:52:52.064Z,97029.13
2022-08-05T11:55:21.688Z,97035.31
2022-08-05T11:58:09.444Z,97028.91
2022-08-05T12:00:41.239Z,97025.47
2022-08-05T12:03:31.742Z,97017.66
2022-08-05T12:06:02.255Z,97011.25
2022-08-05T12:08:31.705Z,97013.56
2022-08-05T12:11:05.629Z,97023.59
2022-08-05T12:13:48.648Z,97014.84
2022-08-05T12:16:19.573Z,97009.72
2022-08-05T12:18:49.449Z,97005.38
2022-08-05T12:21:29.868Z,97014.69
2022-08-05T12:24:09.281Z,97017.47
2022-08-05T12:26:44.150Z,97011.41
2022-08-05T12:29:18.023Z,97015.13
2022-08-05T12:31:55.629Z,97019.44
2022-08-05T12:34:43.727Z,97011.41
2022-08-05T12:37:17.330Z,97008.88
2022-08-05T12:40:03.128Z,96998.16
2022-08-05T12:42:31.598Z,96994.03
2022-08-05T12:45:08.899Z,96990.66
2022-08-05T12:47:37.860Z,96987.16
2022-08-05T12:50:19.833Z,96991.63
2022-08-05T12:53:00.162Z,96992.38
2022-08-05T12:55:32.934Z,96986.72
2022-08-05T12:58:38.553Z,96993.22
2022-08-05T13:02:00.628Z,96994.75
2022-08-05T13:03:42.109Z,97001.56
2022-08-05T13:06:16.947Z,96995.53
2022-08-05T13:08:52.283Z,96987.31
2022-08-05T13:12:02.258Z,96977.38
2022-08-05T13:14:24.909Z,96988.69
2022-08-05T13:17:11.375Z,96983.84
2022-08-05T13:19:52.433Z,96982.13
2022-08-05T13:22:28.363Z,96976.72
2022-08-05T13:24:58.212Z,96966.63
2022-08-05T13:27:41.224Z,96962.88
2022-08-05T13:30:34.220Z,96952.91
2022-08-05T13:33:01.244Z,96958.72
2022-08-05T13:35:43.204Z,96963.41
2022-08-05T13:38:28.097Z,96953.28
2022-08-05T13:40:59.335Z,96947.25
2022-08-05T13:43:43.426Z,96956.16
2022-08-05T13:46:14.105Z,96954.44
2022-08-05T13:48:57.826Z,96944.53
2022-08-05T13:51:36.557Z,96946.88
2022-08-05T13:54:12.710Z,96956.88
2022-08-05T13:56:45.548Z,96958.81
2022-08-05T13:59:24.167Z,96959.88
2022-08-05T14:01:58.586Z,96961.47
2022-08-05T14:04:54.813Z,96955.13
2022-08-05T14:08:00.611Z,96962.16
2022-08-05T14:10:18.973Z,96954.63
2022-08-05T14:12:55.953Z,96941.94
2022-08-05T14:16:08.603Z,96942.16
2022-08-05T14:18:17.350Z,96937.94
2022-08-05T14:20:54.534Z,96937.56
2022-08-05T14:23:25.573Z,96936.19
2022-08-05T14:25:58.867Z,96939.25
2022-08-05T14:28:29.820Z,96934.81
2022-08-05T14:30:58.481Z,96940.03
2022-08-05T14:33:25.721Z,96930.03
2022-08-05T14:35:54.358Z,96923.69
2022-08-05T14:38:33.212Z,96932.09
2022-08-05T14:41:07.203Z,96922.06
2022-08-05T14:44:02.083Z,96927.53
2022-08-05T14:46:29.094Z,96926.81
2022-08-05T14:49:06.745Z,96909.84
2022-08-05T14:51:43.019Z,96913.28
2022-08-05T14:54:28.599Z,96916.53
2022-08-05T14:56:57.688Z,96908.91
2022-08-05T14:59:25.424Z,96925.50
2022-08-05T15:01:57.056Z,96916.19
2022-08-05T15:04:27.387Z,96919.41
2022-08-05T15:06:56.655Z,96926.44
2022-08-05T15:09:51.555Z,96920.69
2022-08-05T15:12:16.375Z,96919.59
2022-08-05T15:14:54.709Z,96920.44
2022-08-05T15:17:45.680Z,96907.78
2022-08-05T15:20:18.991Z,96911.03
2022-08-05T15:22:54.081Z,96913.50
2022-08-05T15:25:23.461Z,96914.09
2022-08-05T15:28:13.317Z,96918.75
2022-08-05T15:30:43.632Z,96908.56
2022-08-05T15:33:13.102Z,96909.97
2022-08-05T15:36:00.254Z,96909.06
2022-08-05T15:38:35.543Z,96902.72
2022-08-05T15:41:20.730Z,96895.84
2022-08-05T15:43:50.594Z,96909.47
2022-08-05T15:46:20.174Z,96895.78
2022-08-05T15:48:52.493Z,96900.47
2022-08-05T15:52:12.646Z,96894.84
2022-08-05T15:54:17.274Z,96898.66
2022-08-05T15:56:44.353Z,96901.28
2022-08-05T15:59:22.063Z,96895.13
2022-08-05T16:01:52.698Z,96905.44
2022-08-05T16:04:25.663Z,96903.66
2022-08-05T16:06:55.758Z,96899.66
2022-08-05T16:09:24.087Z,96901.84
2022-08-05T16:11:53.148Z,96902.19
2022-08-05T16:14:21.596Z,96896.25
2022-08-05T16:16:50.008Z,96904.09
2022-08-05T16:19:18.829Z,96896.28
2022-08-05T16:22:01.195Z,96890.03
2022-08-05T16:24:39.910Z,96898.22
2022-08-05T16:27:09.674Z,96892.28
2022-08-05T16:29:47.497Z,96893.09
2022-08-05T16:32:28.715Z,96892.84
2022-08-05T16:34:57.110Z,96891.22
2022-08-05T16:38:15.047Z,96898.28
2022-08-05T16:40:24.934Z,96889.88
2022-08-05T16:42:53.695Z,96888.50
2022-08-05T16:46:04.278Z,96890.41
2022-08-05T16:48:07.749Z,96899.91
2022-08-05T16:50:38.679Z,96902.84
2022-08-05T16:53:12.031Z,96905.81
2022-08-05T16:55:46.509Z,96911.72
2022-08-05T16:58:14.542Z,96914.69
2022-08-05T17:00:48.124Z,96915.50
2022-08-05T17:03:20.245Z,96920.59
2022-08-05T17:05:53.676Z,96921.13
2022-08-05T17:08:33.621Z,96924.53
2022-08-05T17:11:04.227Z,96930.19
2022-08-05T17:13:37.428Z,96924.41
2022-08-05T17:16:29.948Z,96924.03
2022-08-05T17:18:55.789Z,96937.75
2022-08-05T17:21:23.780Z,96934.34
2022-08-05T17:24:04.616Z,96934.75
2022-08-05T17:26:36.374Z,96933.53
2022-08-05T17:29:07.429Z,96936.09
2022-08-05T17:31:57.082Z,96937.59
2022-08-05T17:34:29.704Z,96940.16
2022-08-05T17:36:59.300Z,96940.78
2022-08-05T17:39:33.574Z,96939.84
2022-08-05T17:42:17.860Z,96947.75
2022-08-05T17:44:50.230Z,96945.59
2022-08-05T17:47:22.705Z,96950.22
2022-08-05T17:50:04.205Z,96954.66
2022-08-05T17:52:53.419Z,96959.88
2022-08-05T17:55:34.490Z,96960.56
2022-08-05T17:58:07.737Z,96962.00
2022-08-05T18:00:40.896Z,96952.69
2022-08-05T18:03:28.195Z,96959.69
2022-08-05T18:06:04.969Z,96966.53
2022-08-05T18:08:34.249Z,96972.22
2022-08-05T18:11:03.277Z,96971.31
2022-08-05T18:13:36.728Z,96971.00
2022-08-05T18:16:13.427Z,96972.44
2022-08-05T18:18:41.549Z,96976.91
2022-08-05T18:21:19.511Z,96985.16
2022-08-05T18:23:48.372Z,96989.59
2022-08-05T18:26:18.687Z,96993.94
2022-08-05T18:28:46.422Z,97000.97
2022-08-05T18:31:15.746Z,96996.88
2022-08-05T18:33:47.075Z,97001.09
2022-08-05T18:36:17.183Z,97005.31
2022-08-05T18:38:46.639Z,97005.78
2022-08-05T18:41:56.503Z,97000.75
2022-08-05T18:44:06.629Z,97004.09
2022-08-05T18:46:35.242Z,97009.44
2022-08-05T18:49:21.399Z,97013.28
2022-08-05T18:52:08.831Z,97018.72
2022-08-05T18:54:41.313Z,97017.28
2022-08-05T18:57:14.978Z,97017.16
2022-08-05T19:00:02.341Z,97020.28
2022-08-05T19:02:29.898Z,97023.94
2022-08-05T19:05:03.188Z,97016.72
2022-08-05T19:07:48.232Z,97023.59
2022-08-05T19:10:17.193Z,97020.31
2022-08-05T19:12:46.093Z,97020.41
2022-08-05T19:15:57.870Z,97023.16
2022-08-05T19:18:09.385Z,97016.59
2022-08-05T19:20:41.449Z,97019.16
2022-08-05T19:24:04.520Z,97016.91
2022-08-05T19:26:01.617Z,97019.50
2022-08-05T19:28:33.950Z,97021.63
2022-08-05T19:31:04.826Z,97016.31
2022-08-05T19:33:36.372Z,97023.84
2022-08-05T19:36:06.306Z,97024.72
2022-08-05T19:38:35.777Z,97027.06
2022-08-05T19:41:06.830Z,97022.06
2022-08-05T19:44:06.629Z,97029.09
2022-08-05T19:46:29.428Z,97034.44
2022-08-05T19:48:56.908Z,97037.16
2022-08-05T19:52:05.301Z,97029.59
2022-08-05T19:54:25.429Z,97024.91
2022-08-05T19:56:55.985Z,97027.00
2022-08-05T19:59:54.711Z,97023.47
2022-08-05T20:02:11.010Z,97026.00
2022-08-05T20:04:38.101Z,97030.97
2022-08-05T20:07:13.427Z,97026.09
2022-08-05T20:09:53.741Z,97022.03
2022-08-05T20:12:21.276Z,97021.22
2022-08-05T20:14:52.392Z,97013.84
2022-08-05T20:17:23.229Z,97019.41
2022-08-05T20:19:56.977Z,97018.56
2022-08-05T20:22:27.003Z,97018.84
2022-08-05T20:24:55.851Z,97016.84
2022-08-05T20:27:27.427Z,97020.97
2022-08-05T20:30:28.108Z,97021.41
2022-08-05T20:32:55.206Z,97018.94
2022-08-05T20:35:22.581Z,97016.91
2022-08-05T20:38:05.477Z,97016.91
2022-08-05T20:40:35.778Z,97009.50
2022-08-05T20:43:05.656Z,97013.19
2022-08-05T20:45:56.168Z,97014.91
2022-08-05T20:48:20.405Z,97014.31
2022-08-05T20:50:47.657Z,97013.50
2022-08-05T20:53:16.031Z,97013.28
2022-08-05T20:56:08.708Z,97013.53
2022-08-05T20:58:36.977Z,97013.13
2022-08-05T21:01:04.529Z,97006.16
2022-08-05T21:03:34.494Z,97005.16
2022-08-05T21:06:02.137Z,97008.84
2022-08-05T21:08:42.434Z,97014.19
2022-08-05T21:11:12.874Z,97017.72
2022-08-05T21:13:59.706Z,97001.88
2022-08-05T21:16:29.713Z,97003.09
2022-08-05T21:19:00.946Z,97006.00
2022-08-05T21:21:43.689Z,97006.22
2022-08-05T21:24:13.547Z,97006.00
2022-08-05T21:26:47.179Z,97007.03
2022-08-05T21:29:23.459Z,97009.94
2022-08-05T21:31:56.516Z,97013.00
2022-08-05T21:34:25.184Z,97005.59
2022-08-05T21:36:55.605Z,97009.50
2022-08-05T21:39:26.888Z,97008.03
2022-08-05T21:42:01.887Z,97005.19
2022-08-05T21:44:31.094Z,97010.09
2022-08-05T21:46:59.936Z,97006.00
2022-08-05T21:50:00.007Z,97006.41
2022-08-05T21:52:22.105Z,97006.44
2022-08-05T21:54:54.958Z,96998.59
2022-08-05T21:57:31.611Z,97012.97
2022-08-05T22:00:06.070Z,97010.13
2022-08-05T22:02:34.927Z,97004.34
2022-08-05T22:05:02.374Z,97011.34
2022-08-05T22:07:39.889Z,97010.53
2022-08-05T22:10:27.056Z,97010.09
2022-08-05T22:12:57.280Z,97010.91
2022-08-05T22:16:02.431Z,97007.63
2022-08-05T22:18:13.364Z,97001.47
2022-08-05T22:20:44.126Z,96993.22
2022-08-05T22:24:02.476Z,96991.97
2022-08-05T22:26:35.299Z,96997.72
2022-08-05T22:29:06.372Z,96997.31
2022-08-05T22:31:45.030Z,96992.53
2022-08-05T22:34:25.462Z,96982.91
2022-08-05T22:36:58.416Z,96984.97
2022-08-05T22:39:32.527Z,96991.72
2022-08-05T22:42:09.306Z,96981.66
2022-08-05T22:44:39.115Z,96988.81
2022-08-05T22:47:06.542Z,96979.16
2022-08-05T22:50:19.326Z,96976.28
2022-08-05T22:52:30.319Z,96978.94
2022-08-05T22:55:01.516Z,96983.22
2022-08-05T22:57:36.247Z,96978.91
2022-08-05T23:00:07.868Z,96973.38
2022-08-05T23:02:46.615Z,96967.22
2022-08-05T23:05:18.557Z,96974.56
2022-08-05T23:07:48.586Z,96973.13
2022-08-05T23:10:19.679Z,96981.75
2022-08-05T23:12:48.048Z,96977.44
2022-08-05T23:15:19.023Z,96976.63
2022-08-05T23:18:01.797Z,96980.28
2022-08-05T23:20:32.115Z,96972.53
2022-08-05T23:22:59.714Z,96976.66
2022-08-05T23:25:51.725Z,96972.94
2022-08-05T23:28:15.761Z,96973.53
2022-08-05T23:30:53.470Z,96973.09
2022-08-05T23:33:26.340Z,96970.00
2022-08-05T23:36:10.588Z,96971.22
2022-08-05T23:38:38.001Z,96967.94
2022-08-05T23:41:05.140Z,96972.44
2022-08-05T23:44:03.617Z,96972.84
2022-08-05T23:46:21.989Z,96967.06
2022-08-05T23:49:00.699Z,96969.06
2022-08-05T23:51:55.446Z,96959.25
2022-08-05T23:54:26.325Z,96964.56
2022-08-05T23:57:03.994Z,96967.38
